map of GYL home
GYL - Airport
Location
City:  Argyle, Western Australia, Australia
ICAO:YARG
IATA:GYL

Details
Type:Airport (Aerodrome, Airfield)
Latitude:1638'13"S (-16.636943)
Longitude:12827'05"E (128.451389)
Datum:WGS 1984
Elevation:522 ft (159 m)
Variation:2.59E (WMM2015 magnetic declination)
-0.08 annual change
Runways:1
Longest:7546 × 98 ft (2300 × 30 m), paved

Time
Time Zone:UTC+8
Local Time:

Weather
METAR:YARG 210100Z AUTO 35010KT 9999 // NCD 33/18 Q1009

Related Locations
Nearby:
Farthest:BGI: 11861 mi / 19088 km
Bridgetown [Grantley Adams Intl], BB

Find:

   beyond  
but within

Other Information
Maps:
NOTAMs:
Links:
Sources:

  
  • flag of Australia
  • flag of Western Australia
  

Sectional Chart

Flight Planning
at skyvector.com

Satellite Image

Google Maps Satellite view

 

Copyright © 2004-2018 Karl L. Swartz. All rights reserved.
The Great Circle Mapper name and logo are trademarks of the Great Circle Mapper.
All other trademarks mentioned herein belong to their respective owners.
Please see credits for attibutions and further copyright information.

  Follow gcmap on Facebook Follow gcmap on Twitter Follow gcmap on Google+ GCmap on LinkedIn

hCard Microformat

Geo Microformat